sensor_id;sensor_type;location;lat;lon;timestamp;P1;durP1;ratioP1;P2;durP2;ratioP2
3726;SDS011;1879;45.876;12.300;2023-02-28T00:00:29;10.63;;;7.63;;
3726;SDS011;1879;45.876;12.300;2023-02-28T00:02:56;9.73;;;8.00;;
3726;SDS011;1879;45.876;12.300;2023-02-28T00:05:25;8.50;;;7.60;;
3726;SDS011;1879;45.876;12.300;2023-02-28T00:07:53;8.90;;;7.43;;
3726;SDS011;1879;45.876;12.300;2023-02-28T00:10:22;10.50;;;8.27;;
3726;SDS011;1879;45.876;12.300;2023-02-28T00:12:51;8.33;;;7.27;;
3726;SDS011;1879;45.876;12.300;2023-02-28T00:15:19;8.40;;;7.60;;
3726;SDS011;1879;45.876;12.300;2023-02-28T00:17:47;9.40;;;7.50;;
3726;SDS011;1879;45.876;12.300;2023-02-28T00:20:15;8.40;;;7.67;;
3726;SDS011;1879;45.876;12.300;2023-02-28T00:22:42;8.43;;;7.57;;
3726;SDS011;1879;45.876;12.300;2023-02-28T00:25:12;7.17;;;6.57;;
3726;SDS011;1879;45.876;12.300;2023-02-28T00:27:41;8.27;;;7.50;;
3726;SDS011;1879;45.876;12.300;2023-02-28T00:30:11;7.93;;;7.13;;
3726;SDS011;1879;45.876;12.300;2023-02-28T00:32:40;8.73;;;7.83;;
3726;SDS011;1879;45.876;12.300;2023-02-28T00:35:08;8.47;;;7.63;;
3726;SDS011;1879;45.876;12.300;2023-02-28T00:37:36;7.97;;;7.27;;
3726;SDS011;1879;45.876;12.300;2023-02-28T00:40:03;10.20;;;7.40;;
3726;SDS011;1879;45.876;12.300;2023-02-28T00:42:32;8.07;;;7.30;;
3726;SDS011;1879;45.876;12.300;2023-02-28T00:44:59;7.80;;;7.00;;
3726;SDS011;1879;45.876;12.300;2023-02-28T00:47:27;8.43;;;7.73;;
3726;SDS011;1879;45.876;12.300;2023-02-28T00:49:54;7.80;;;6.83;;
3726;SDS011;1879;45.876;12.300;2023-02-28T00:52:21;9.33;;;7.47;;
3726;SDS011;1879;45.876;12.300;2023-02-28T00:54:48;7.87;;;7.07;;
3726;SDS011;1879;45.876;12.300;2023-02-28T00:57:15;9.80;;;7.40;;
3726;SDS011;1879;45.876;12.300;2023-02-28T00:59:42;8.00;;;7.20;;
3726;SDS011;1879;45.876;12.300;2023-02-28T01:02:09;10.43;;;6.80;;
3726;SDS011;1879;45.876;12.300;2023-02-28T01:04:38;8.00;;;7.20;;
3726;SDS011;1879;45.876;12.300;2023-02-28T01:07:05;8.07;;;7.27;;
3726;SDS011;1879;45.876;12.300;2023-02-28T01:09:31;7.37;;;6.67;;
3726;SDS011;1879;45.876;12.300;2023-02-28T01:11:58;7.87;;;7.20;;
3726;SDS011;1879;45.876;12.300;2023-02-28T01:14:25;8.73;;;7.90;;
3726;SDS011;1879;45.876;12.300;2023-02-28T01:16:52;7.60;;;6.80;;
3726;SDS011;1879;45.876;12.300;2023-02-28T01:19:19;7.97;;;7.17;;
3726;SDS011;1879;45.876;12.300;2023-02-28T01:21:48;8.23;;;7.43;;
3726;SDS011;1879;45.876;12.300;2023-02-28T01:24:15;7.67;;;6.80;;
3726;SDS011;1879;45.876;12.300;2023-02-28T01:26:42;8.73;;;7.83;;
3726;SDS011;1879;45.876;12.300;2023-02-28T01:29:09;7.63;;;6.80;;
3726;SDS011;1879;45.876;12.300;2023-02-28T01:31:36;8.00;;;7.20;;
3726;SDS011;1879;45.876;12.300;2023-02-28T01:34:03;8.20;;;7.40;;
3726;SDS011;1879;45.876;12.300;2023-02-28T01:36:30;7.90;;;7.10;;
3726;SDS011;1879;45.876;12.300;2023-02-28T01:38:58;7.63;;;6.93;;
3726;SDS011;1879;45.876;12.300;2023-02-28T01:41:26;7.50;;;6.80;;
3726;SDS011;1879;45.876;12.300;2023-02-28T01:43:55;9.10;;;7.67;;
3726;SDS011;1879;45.876;12.300;2023-02-28T01:46:24;7.33;;;6.63;;
3726;SDS011;1879;45.876;12.300;2023-02-28T01:48:52;7.03;;;6.40;;
3726;SDS011;1879;45.876;12.300;2023-02-28T01:51:25;7.30;;;6.60;;
3726;SDS011;1879;45.876;12.300;2023-02-28T01:53:55;8.47;;;6.80;;
3726;SDS011;1879;45.876;12.300;2023-02-28T01:56:28;7.13;;;6.53;;
3726;SDS011;1879;45.876;12.300;2023-02-28T01:58:58;7.13;;;6.30;;
3726;SDS011;1879;45.876;12.300;2023-02-28T02:01:26;7.70;;;6.90;;
3726;SDS011;1879;45.876;12.300;2023-02-28T02:03:55;7.90;;;7.20;;
3726;SDS011;1879;45.876;12.300;2023-02-28T02:06:24;7.83;;;6.97;;
3726;SDS011;1879;45.876;12.300;2023-02-28T02:08:54;9.07;;;7.60;;
3726;SDS011;1879;45.876;12.300;2023-02-28T02:11:22;7.93;;;6.97;;
3726;SDS011;1879;45.876;12.300;2023-02-28T02:13:58;7.43;;;6.63;;
3726;SDS011;1879;45.876;12.300;2023-02-28T02:16:37;7.53;;;6.77;;
3726;SDS011;1879;45.876;12.300;2023-02-28T02:19:16;8.10;;;7.40;;
3726;SDS011;1879;45.876;12.300;2023-02-28T02:22:08;7.50;;;6.80;;
3726;SDS011;1879;45.876;12.300;2023-02-28T02:24:58;8.47;;;7.27;;
3726;SDS011;1879;45.876;12.300;2023-02-28T02:27:55;7.17;;;6.57;;
3726;SDS011;1879;45.876;12.300;2023-02-28T02:36:33;7.93;;;7.23;;
3726;SDS011;1879;45.876;12.300;2023-02-28T02:39:06;7.80;;;7.00;;
3726;SDS011;1879;45.876;12.300;2023-02-28T02:41:40;8.07;;;7.30;;
3726;SDS011;1879;45.876;12.300;2023-02-28T02:44:15;7.60;;;6.80;;
3726;SDS011;1879;45.876;12.300;2023-02-28T02:46:47;8.50;;;7.70;;
3726;SDS011;1879;45.876;12.300;2023-02-28T02:49:21;8.27;;;7.47;;
3726;SDS011;1879;45.876;12.300;2023-02-28T02:51:52;8.43;;;7.63;;
3726;SDS011;1879;45.876;12.300;2023-02-28T02:54:22;8.50;;;7.70;;
3726;SDS011;1879;45.876;12.300;2023-02-28T02:56:54;9.97;;;7.47;;
3726;SDS011;1879;45.876;12.300;2023-02-28T02:59:24;8.77;;;7.50;;
3726;SDS011;1879;45.876;12.300;2023-02-28T03:01:52;8.43;;;7.63;;
3726;SDS011;1879;45.876;12.300;2023-02-28T03:04:24;8.33;;;7.53;;
3726;SDS011;1879;45.876;12.300;2023-02-28T03:06:55;8.33;;;7.60;;
3726;SDS011;1879;45.876;12.300;2023-02-28T03:09:22;8.03;;;7.33;;
3726;SDS011;1879;45.876;12.300;2023-02-28T03:11:49;7.90;;;7.10;;
3726;SDS011;1879;45.876;12.300;2023-02-28T03:14:30;8.40;;;7.60;;
3726;SDS011;1879;45.876;12.300;2023-02-28T03:17:14;10.03;;;8.10;;
3726;SDS011;1879;45.876;12.300;2023-02-28T03:20:01;8.83;;;7.60;;
3726;SDS011;1879;45.876;12.300;2023-02-28T03:22:38;7.97;;;7.17;;
3726;SDS011;1879;45.876;12.300;2023-02-28T03:25:20;8.17;;;7.37;;
3726;SDS011;1879;45.876;12.300;2023-02-28T03:27:59;9.33;;;6.80;;
3726;SDS011;1879;45.876;12.300;2023-02-28T03:30:32;8.13;;;7.33;;
3726;SDS011;1879;45.876;12.300;2023-02-28T03:33:06;8.40;;;7.53;;
3726;SDS011;1879;45.876;12.300;2023-02-28T03:35:39;8.20;;;7.50;;
3726;SDS011;1879;45.876;12.300;2023-02-28T03:38:11;8.00;;;7.20;;
3726;SDS011;1879;45.876;12.300;2023-02-28T03:40:45;8.33;;;7.53;;
3726;SDS011;1879;45.876;12.300;2023-02-28T03:43:16;8.63;;;7.77;;
3726;SDS011;1879;45.876;12.300;2023-02-28T03:45:47;8.87;;;7.57;;
3726;SDS011;1879;45.876;12.300;2023-02-28T03:48:18;8.77;;;7.97;;
3726;SDS011;1879;45.876;12.300;2023-02-28T03:50:51;9.20;;;8.23;;
3726;SDS011;1879;45.876;12.300;2023-02-28T03:53:21;9.63;;;8.80;;
3726;SDS011;1879;45.876;12.300;2023-02-28T03:55:53;9.00;;;8.03;;
3726;SDS011;1879;45.876;12.300;2023-02-28T03:58:25;8.83;;;7.93;;
3726;SDS011;1879;45.876;12.300;2023-02-28T04:00:58;8.90;;;7.70;;
3726;SDS011;1879;45.876;12.300;2023-02-28T04:03:33;8.53;;;7.70;;
3726;SDS011;1879;45.876;12.300;2023-02-28T04:06:03;8.40;;;7.57;;
3726;SDS011;1879;45.876;12.300;2023-02-28T04:08:32;10.90;;;7.77;;
3726;SDS011;1879;45.876;12.300;2023-02-28T04:11:00;9.13;;;7.10;;
3726;SDS011;1879;45.876;12.300;2023-02-28T04:13:31;8.87;;;7.97;;
3726;SDS011;1879;45.876;12.300;2023-02-28T04:15:57;9.10;;;7.23;;
3726;SDS011;1879;45.876;12.300;2023-02-28T04:18:24;8.90;;;7.17;;
3726;SDS011;1879;45.876;12.300;2023-02-28T04:20:51;9.07;;;7.93;;
3726;SDS011;1879;45.876;12.300;2023-02-28T04:23:20;9.00;;;7.60;;
3726;SDS011;1879;45.876;12.300;2023-02-28T04:25:47;9.17;;;7.87;;
3726;SDS011;1879;45.876;12.300;2023-02-28T04:28:16;8.33;;;7.53;;
3726;SDS011;1879;45.876;12.300;2023-02-28T04:30:43;8.83;;;7.47;;
3726;SDS011;1879;45.876;12.300;2023-02-28T04:33:10;9.60;;;7.90;;
3726;SDS011;1879;45.876;12.300;2023-02-28T04:35:37;10.10;;;8.37;;
3726;SDS011;1879;45.876;12.300;2023-02-28T04:38:04;8.30;;;7.50;;
3726;SDS011;1879;45.876;12.300;2023-02-28T04:40:32;11.10;;;7.87;;
3726;SDS011;1879;45.876;12.300;2023-02-28T04:42:59;8.73;;;7.80;;
3726;SDS011;1879;45.876;12.300;2023-02-28T04:45:26;9.57;;;8.33;;
3726;SDS011;1879;45.876;12.300;2023-02-28T04:47:55;7.90;;;7.10;;
3726;SDS011;1879;45.876;12.300;2023-02-28T04:50:22;11.57;;;8.60;;
3726;SDS011;1879;45.876;12.300;2023-02-28T04:52:49;8.90;;;8.10;;
3726;SDS011;1879;45.876;12.300;2023-02-28T04:55:16;9.97;;;8.17;;
3726;SDS011;1879;45.876;12.300;2023-02-28T04:57:44;8.90;;;7.20;;
3726;SDS011;1879;45.876;12.300;2023-02-28T05:00:11;11.37;;;8.30;;
3726;SDS011;1879;45.876;12.300;2023-02-28T05:02:41;9.00;;;8.10;;
3726;SDS011;1879;45.876;12.300;2023-02-28T05:05:09;9.70;;;8.70;;
3726;SDS011;1879;45.876;12.300;2023-02-28T05:07:37;10.17;;;8.00;;
3726;SDS011;1879;45.876;12.300;2023-02-28T05:10:04;8.83;;;7.90;;
3726;SDS011;1879;45.876;12.300;2023-02-28T05:12:31;9.30;;;8.03;;
3726;SDS011;1879;45.876;12.300;2023-02-28T05:15:00;8.93;;;7.73;;
3726;SDS011;1879;45.876;12.300;2023-02-28T05:17:27;10.63;;;8.57;;
3726;SDS011;1879;45.876;12.300;2023-02-28T05:19:54;11.47;;;9.07;;
3726;SDS011;1879;45.876;12.300;2023-02-28T05:22:21;10.10;;;8.50;;
3726;SDS011;1879;45.876;12.300;2023-02-28T05:24:48;10.50;;;9.33;;
3726;SDS011;1879;45.876;12.300;2023-02-28T05:27:15;11.20;;;8.63;;
3726;SDS011;1879;45.876;12.300;2023-02-28T05:29:42;8.90;;;7.80;;
3726;SDS011;1879;45.876;12.300;2023-02-28T05:32:11;9.23;;;7.80;;
3726;SDS011;1879;45.876;12.300;2023-02-28T05:34:39;10.80;;;8.17;;
3726;SDS011;1879;45.876;12.300;2023-02-28T05:37:08;12.53;;;8.70;;
3726;SDS011;1879;45.876;12.300;2023-02-28T05:39:38;12.27;;;9.47;;
3726;SDS011;1879;45.876;12.300;2023-02-28T05:42:05;13.07;;;8.67;;
3726;SDS011;1879;45.876;12.300;2023-02-28T05:44:32;10.70;;;8.03;;
3726;SDS011;1879;45.876;12.300;2023-02-28T05:46:59;11.80;;;8.70;;
3726;SDS011;1879;45.876;12.300;2023-02-28T05:49:27;11.20;;;8.63;;
3726;SDS011;1879;45.876;12.300;2023-02-28T05:51:54;12.50;;;9.57;;
3726;SDS011;1879;45.876;12.300;2023-02-28T05:54:21;11.83;;;9.40;;
3726;SDS011;1879;45.876;12.300;2023-02-28T05:56:48;14.13;;;10.50;;
3726;SDS011;1879;45.876;12.300;2023-02-28T05:59:15;13.80;;;9.73;;
3726;SDS011;1879;45.876;12.300;2023-02-28T06:01:43;10.97;;;8.77;;
3726;SDS011;1879;45.876;12.300;2023-02-28T06:04:13;12.40;;;8.50;;
3726;SDS011;1879;45.876;12.300;2023-02-28T06:06:44;12.77;;;9.73;;
3726;SDS011;1879;45.876;12.300;2023-02-28T06:09:11;12.63;;;9.13;;
3726;SDS011;1879;45.876;12.300;2023-02-28T06:11:38;18.03;;;10.27;;
3726;SDS011;1879;45.876;12.300;2023-02-28T06:14:05;12.93;;;10.20;;
3726;SDS011;1879;45.876;12.300;2023-02-28T06:16:33;12.10;;;9.83;;
3726;SDS011;1879;45.876;12.300;2023-02-28T06:19:02;15.30;;;11.73;;
3726;SDS011;1879;45.876;12.300;2023-02-28T06:21:30;14.17;;;12.83;;
3726;SDS011;1879;45.876;12.300;2023-02-28T06:23:59;12.50;;;10.80;;
3726;SDS011;1879;45.876;12.300;2023-02-28T06:26:26;12.63;;;9.70;;
3726;SDS011;1879;45.876;12.300;2023-02-28T06:28:53;11.20;;;9.23;;
3726;SDS011;1879;45.876;12.300;2023-02-28T06:31:21;11.63;;;9.83;;
3726;SDS011;1879;45.876;12.300;2023-02-28T06:33:48;13.07;;;10.23;;
3726;SDS011;1879;45.876;12.300;2023-02-28T06:36:16;10.67;;;8.57;;
3726;SDS011;1879;45.876;12.300;2023-02-28T06:38:44;10.37;;;8.97;;
3726;SDS011;1879;45.876;12.300;2023-02-28T06:41:14;11.53;;;9.50;;
3726;SDS011;1879;45.876;12.300;2023-02-28T06:43:44;9.70;;;8.70;;
3726;SDS011;1879;45.876;12.300;2023-02-28T06:46:12;10.60;;;9.10;;
3726;SDS011;1879;45.876;12.300;2023-02-28T06:48:40;9.57;;;8.17;;
3726;SDS011;1879;45.876;12.300;2023-02-28T06:51:08;11.20;;;8.80;;
3726;SDS011;1879;45.876;12.300;2023-02-28T06:53:36;11.00;;;8.50;;
3726;SDS011;1879;45.876;12.300;2023-02-28T06:56:04;13.63;;;9.60;;
3726;SDS011;1879;45.876;12.300;2023-02-28T06:58:33;11.33;;;9.07;;
3726;SDS011;1879;45.876;12.300;2023-02-28T07:01:00;11.50;;;8.67;;
3726;SDS011;1879;45.876;12.300;2023-02-28T07:03:28;11.80;;;9.00;;
3726;SDS011;1879;45.876;12.300;2023-02-28T07:05:55;10.30;;;9.20;;
3726;SDS011;1879;45.876;12.300;2023-02-28T07:08:22;12.50;;;9.27;;
3726;SDS011;1879;45.876;12.300;2023-02-28T07:10:51;15.33;;;8.70;;
3726;SDS011;1879;45.876;12.300;2023-02-28T07:13:19;11.40;;;8.70;;
3726;SDS011;1879;45.876;12.300;2023-02-28T07:15:53;11.10;;;8.67;;
3726;SDS011;1879;45.876;12.300;2023-02-28T07:18:21;9.80;;;8.70;;
3726;SDS011;1879;45.876;12.300;2023-02-28T07:20:48;9.87;;;7.90;;
3726;SDS011;1879;45.876;12.300;2023-02-28T07:23:15;10.60;;;7.90;;
3726;SDS011;1879;45.876;12.300;2023-02-28T07:25:43;10.07;;;8.80;;
3726;SDS011;1879;45.876;12.300;2023-02-28T07:28:10;12.10;;;9.63;;
3726;SDS011;1879;45.876;12.300;2023-02-28T07:30:38;10.70;;;9.00;;
3726;SDS011;1879;45.876;12.300;2023-02-28T07:33:07;10.30;;;8.97;;
3726;SDS011;1879;45.876;12.300;2023-02-28T07:35:34;10.47;;;8.57;;
3726;SDS011;1879;45.876;12.300;2023-02-28T07:38:01;10.03;;;8.30;;
3726;SDS011;1879;45.876;12.300;2023-02-28T07:40:29;8.97;;;7.97;;
3726;SDS011;1879;45.876;12.300;2023-02-28T07:42:57;9.73;;;8.73;;
3726;SDS011;1879;45.876;12.300;2023-02-28T07:45:25;9.47;;;7.87;;
3726;SDS011;1879;45.876;12.300;2023-02-28T07:47:53;10.80;;;9.20;;
3726;SDS011;1879;45.876;12.300;2023-02-28T07:50:23;11.80;;;8.57;;
3726;SDS011;1879;45.876;12.300;2023-02-28T07:52:49;10.33;;;8.90;;
3726;SDS011;1879;45.876;12.300;2023-02-28T07:55:17;17.00;;;10.50;;
3726;SDS011;1879;45.876;12.300;2023-02-28T07:57:44;8.97;;;7.90;;
3726;SDS011;1879;45.876;12.300;2023-02-28T08:00:11;10.60;;;8.50;;
3726;SDS011;1879;45.876;12.300;2023-02-28T08:02:39;11.77;;;9.40;;
3726;SDS011;1879;45.876;12.300;2023-02-28T08:05:06;10.73;;;8.43;;
3726;SDS011;1879;45.876;12.300;2023-02-28T08:07:36;9.13;;;7.50;;
3726;SDS011;1879;45.876;12.300;2023-02-28T08:10:03;10.67;;;7.93;;
3726;SDS011;1879;45.876;12.300;2023-02-28T08:12:31;12.30;;;7.80;;
3726;SDS011;1879;45.876;12.300;2023-02-28T08:14:58;9.50;;;7.93;;
3726;SDS011;1879;45.876;12.300;2023-02-28T08:17:25;8.43;;;7.20;;
3726;SDS011;1879;45.876;12.300;2023-02-28T08:19:52;11.43;;;8.13;;
3726;SDS011;1879;45.876;12.300;2023-02-28T08:22:19;11.10;;;8.17;;
3726;SDS011;1879;45.876;12.300;2023-02-28T08:24:47;9.13;;;7.97;;
3726;SDS011;1879;45.876;12.300;2023-02-28T08:27:14;11.40;;;7.93;;
3726;SDS011;1879;45.876;12.300;2023-02-28T08:29:42;10.13;;;8.73;;
3726;SDS011;1879;45.876;12.300;2023-02-28T08:32:09;8.73;;;7.73;;
3726;SDS011;1879;45.876;12.300;2023-02-28T08:34:38;9.93;;;8.50;;
3726;SDS011;1879;45.876;12.300;2023-02-28T08:37:06;11.57;;;8.60;;
3726;SDS011;1879;45.876;12.300;2023-02-28T08:39:33;10.13;;;8.23;;
3726;SDS011;1879;45.876;12.300;2023-02-28T08:42:03;8.27;;;7.33;;
3726;SDS011;1879;45.876;12.300;2023-02-28T08:44:30;8.40;;;7.60;;
3726;SDS011;1879;45.876;12.300;2023-02-28T08:46:57;15.23;;;7.73;;
3726;SDS011;1879;45.876;12.300;2023-02-28T08:49:24;8.40;;;7.13;;
3726;SDS011;1879;45.876;12.300;2023-02-28T08:51:51;9.00;;;7.13;;
3726;SDS011;1879;45.876;12.300;2023-02-28T08:54:20;11.07;;;8.20;;
3726;SDS011;1879;45.876;12.300;2023-02-28T08:56:48;12.50;;;8.80;;
3726;SDS011;1879;45.876;12.300;2023-02-28T08:59:16;10.40;;;8.20;;
3726;SDS011;1879;45.876;12.300;2023-02-28T09:01:43;9.40;;;7.20;;
3726;SDS011;1879;45.876;12.300;2023-02-28T09:04:10;8.40;;;7.60;;
3726;SDS011;1879;45.876;12.300;2023-02-28T09:06:37;7.97;;;7.03;;
3726;SDS011;1879;45.876;12.300;2023-02-28T09:09:04;9.33;;;7.20;;
3726;SDS011;1879;45.876;12.300;2023-02-28T09:11:32;9.00;;;7.03;;
3726;SDS011;1879;45.876;12.300;2023-02-28T09:14:00;11.17;;;8.03;;
3726;SDS011;1879;45.876;12.300;2023-02-28T09:16:30;7.35;;;5.43;;
3726;SDS011;1879;45.876;12.300;2023-02-28T09:18:58;10.80;;;7.40;;
3726;SDS011;1879;45.876;12.300;2023-02-28T09:21:25;8.50;;;7.57;;
3726;SDS011;1879;45.876;12.300;2023-02-28T09:23:52;10.57;;;8.40;;
3726;SDS011;1879;45.876;12.300;2023-02-28T09:26:20;10.40;;;8.13;;
3726;SDS011;1879;45.876;12.300;2023-02-28T09:28:48;9.73;;;7.20;;
3726;SDS011;1879;45.876;12.300;2023-02-28T09:31:17;9.87;;;7.40;;
3726;SDS011;1879;45.876;12.300;2023-02-28T09:33:48;10.50;;;7.77;;
3726;SDS011;1879;45.876;12.300;2023-02-28T09:36:15;9.90;;;7.50;;
3726;SDS011;1879;45.876;12.300;2023-02-28T09:38:43;9.07;;;7.70;;
3726;SDS011;1879;45.876;12.300;2023-02-28T09:41:12;9.90;;;7.43;;
3726;SDS011;1879;45.876;12.300;2023-02-28T09:43:43;12.83;;;8.17;;
3726;SDS011;1879;45.876;12.300;2023-02-28T09:46:20;8.30;;;7.07;;
3726;SDS011;1879;45.876;12.300;2023-02-28T09:48:54;12.73;;;7.90;;
3726;SDS011;1879;45.876;12.300;2023-02-28T09:51:28;9.53;;;7.67;;
3726;SDS011;1879;45.876;12.300;2023-02-28T09:54:02;9.50;;;7.33;;
3726;SDS011;1879;45.876;12.300;2023-02-28T09:56:31;9.90;;;8.40;;
3726;SDS011;1879;45.876;12.300;2023-02-28T09:59:06;12.70;;;8.60;;
3726;SDS011;1879;45.876;12.300;2023-02-28T10:01:43;11.50;;;8.50;;
3726;SDS011;1879;45.876;12.300;2023-02-28T10:04:33;10.70;;;8.00;;
3726;SDS011;1879;45.876;12.300;2023-02-28T10:07:07;10.23;;;7.87;;
3726;SDS011;1879;45.876;12.300;2023-02-28T10:09:46;11.17;;;8.03;;
3726;SDS011;1879;45.876;12.300;2023-02-28T10:12:17;11.13;;;7.70;;
3726;SDS011;1879;45.876;12.300;2023-02-28T10:14:46;10.90;;;8.00;;
3726;SDS011;1879;45.876;12.300;2023-02-28T10:17:16;8.00;;;6.90;;
3726;SDS011;1879;45.876;12.300;2023-02-28T10:19:52;9.07;;;7.90;;
3726;SDS011;1879;45.876;12.300;2023-02-28T10:22:27;14.13;;;8.03;;
3726;SDS011;1879;45.876;12.300;2023-02-28T10:25:16;13.13;;;8.20;;
3726;SDS011;1879;45.876;12.300;2023-02-28T10:27:44;9.10;;;8.20;;
3726;SDS011;1879;45.876;12.300;2023-02-28T10:30:12;8.40;;;7.40;;
3726;SDS011;1879;45.876;12.300;2023-02-28T10:32:40;10.73;;;8.03;;
3726;SDS011;1879;45.876;12.300;2023-02-28T10:35:15;8.77;;;7.83;;
3726;SDS011;1879;45.876;12.300;2023-02-28T10:37:47;8.67;;;7.70;;
3726;SDS011;1879;45.876;12.300;2023-02-28T10:40:26;10.47;;;7.93;;
3726;SDS011;1879;45.876;12.300;2023-02-28T10:42:56;9.77;;;8.00;;
3726;SDS011;1879;45.876;12.300;2023-02-28T10:45:24;8.67;;;7.60;;
3726;SDS011;1879;45.876;12.300;2023-02-28T10:47:53;10.37;;;8.47;;
3726;SDS011;1879;45.876;12.300;2023-02-28T10:50:28;9.80;;;7.83;;
3726;SDS011;1879;45.876;12.300;2023-02-28T10:53:07;8.30;;;7.13;;
3726;SDS011;1879;45.876;12.300;2023-02-28T10:55:56;9.23;;;8.17;;
3726;SDS011;1879;45.876;12.300;2023-02-28T10:58:27;9.57;;;8.10;;
3726;SDS011;1879;45.876;12.300;2023-02-28T11:00:56;14.13;;;8.80;;
3726;SDS011;1879;45.876;12.300;2023-02-28T11:03:29;9.27;;;7.33;;
3726;SDS011;1879;45.876;12.300;2023-02-28T11:05:59;10.00;;;8.10;;
3726;SDS011;1879;45.876;12.300;2023-02-28T11:08:32;8.73;;;7.83;;
3726;SDS011;1879;45.876;12.300;2023-02-28T11:11:01;9.50;;;7.67;;
3726;SDS011;1879;45.876;12.300;2023-02-28T11:13:33;9.93;;;7.97;;
3726;SDS011;1879;45.876;12.300;2023-02-28T11:16:04;8.67;;;7.53;;
3726;SDS011;1879;45.876;12.300;2023-02-28T11:18:35;11.53;;;7.50;;
3726;SDS011;1879;45.876;12.300;2023-02-28T11:21:08;8.90;;;7.33;;
3726;SDS011;1879;45.876;12.300;2023-02-28T11:23:42;9.20;;;7.57;;
3726;SDS011;1879;45.876;12.300;2023-02-28T11:26:09;9.20;;;7.43;;
3726;SDS011;1879;45.876;12.300;2023-02-28T11:28:37;8.90;;;6.93;;
3726;SDS011;1879;45.876;12.300;2023-02-28T11:31:14;7.80;;;6.80;;
3726;SDS011;1879;45.876;12.300;2023-02-28T11:33:45;9.90;;;7.37;;
3726;SDS011;1879;45.876;12.300;2023-02-28T11:36:18;8.93;;;8.03;;
3726;SDS011;1879;45.876;12.300;2023-02-28T11:38:47;13.03;;;8.97;;
3726;SDS011;1879;45.876;12.300;2023-02-28T11:41:21;8.87;;;8.03;;
3726;SDS011;1879;45.876;12.300;2023-02-28T11:44:02;10.03;;;7.90;;
3726;SDS011;1879;45.876;12.300;2023-02-28T11:46:40;9.53;;;8.53;;
3726;SDS011;1879;45.876;12.300;2023-02-28T11:49:15;8.37;;;7.57;;
3726;SDS011;1879;45.876;12.300;2023-02-28T11:51:53;9.47;;;8.57;;
3726;SDS011;1879;45.876;12.300;2023-02-28T11:54:27;8.90;;;7.33;;
3726;SDS011;1879;45.876;12.300;2023-02-28T11:57:16;9.70;;;8.30;;
3726;SDS011;1879;45.876;12.300;2023-02-28T11:59:56;7.93;;;7.20;;
3726;SDS011;1879;45.876;12.300;2023-02-28T12:02:30;9.27;;;7.77;;
3726;SDS011;1879;45.876;12.300;2023-02-28T12:05:20;8.80;;;7.07;;
3726;SDS011;1879;45.876;12.300;2023-02-28T12:07:58;8.40;;;7.60;;
3726;SDS011;1879;45.876;12.300;2023-02-28T12:10:29;9.43;;;7.60;;
3726;SDS011;1879;45.876;12.300;2023-02-28T12:13:02;10.10;;;8.50;;
3726;SDS011;1879;45.876;12.300;2023-02-28T12:15:42;9.00;;;8.20;;
3726;SDS011;1879;45.876;12.300;2023-02-28T12:18:24;7.93;;;7.30;;
3726;SDS011;1879;45.876;12.300;2023-02-28T12:21:08;8.30;;;7.60;;
3726;SDS011;1879;45.876;12.300;2023-02-28T12:23:52;9.27;;;7.83;;
3726;SDS011;1879;45.876;12.300;2023-02-28T12:26:32;10.17;;;8.23;;
3726;SDS011;1879;45.876;12.300;2023-02-28T12:29:05;9.07;;;8.27;;
3726;SDS011;1879;45.876;12.300;2023-02-28T12:31:40;9.87;;;8.83;;
3726;SDS011;1879;45.876;12.300;2023-02-28T12:34:10;8.13;;;7.43;;
3726;SDS011;1879;45.876;12.300;2023-02-28T12:36:39;10.30;;;7.80;;
3726;SDS011;1879;45.876;12.300;2023-02-28T12:39:10;8.20;;;7.40;;
3726;SDS011;1879;45.876;12.300;2023-02-28T12:41:45;7.93;;;7.23;;
3726;SDS011;1879;45.876;12.300;2023-02-28T12:44:17;9.17;;;8.27;;
3726;SDS011;1879;45.876;12.300;2023-02-28T12:46:50;9.10;;;8.27;;
3726;SDS011;1879;45.876;12.300;2023-02-28T12:49:21;7.90;;;7.20;;
3726;SDS011;1879;45.876;12.300;2023-02-28T12:51:55;7.50;;;6.90;;
3726;SDS011;1879;45.876;12.300;2023-02-28T12:54:26;11.60;;;7.23;;
3726;SDS011;1879;45.876;12.300;2023-02-28T12:57:00;9.13;;;7.50;;
3726;SDS011;1879;45.876;12.300;2023-02-28T12:59:37;7.50;;;6.80;;
3726;SDS011;1879;45.876;12.300;2023-02-28T13:05:29;7.33;;;6.63;;
3726;SDS011;1879;45.876;12.300;2023-02-28T13:08:20;8.60;;;7.87;;
3726;SDS011;1879;45.876;12.300;2023-02-28T13:11:02;9.90;;;7.03;;
3726;SDS011;1879;45.876;12.300;2023-02-28T13:13:30;8.33;;;7.57;;
3726;SDS011;1879;45.876;12.300;2023-02-28T13:15:58;7.60;;;7.00;;
3726;SDS011;1879;45.876;12.300;2023-02-28T13:18:32;8.00;;;7.20;;
3726;SDS011;1879;45.876;12.300;2023-02-28T13:21:02;7.10;;;6.10;;
3726;SDS011;1879;45.876;12.300;2023-02-28T13:29:31;7.43;;;6.20;;
3726;SDS011;1879;45.876;12.300;2023-02-28T13:35:12;7.80;;;6.20;;
3726;SDS011;1879;45.876;12.300;2023-02-28T13:38:23;7.67;;;7.00;;
3726;SDS011;1879;45.876;12.300;2023-02-28T13:44:15;9.07;;;6.90;;
3726;SDS011;1879;45.876;12.300;2023-02-28T13:52:47;11.70;;;8.10;;
3726;SDS011;1879;45.876;12.300;2023-02-28T13:55:30;7.90;;;7.20;;
3726;SDS011;1879;45.876;12.300;2023-02-28T13:58:23;7.70;;;6.90;;
3726;SDS011;1879;45.876;12.300;2023-02-28T14:01:14;6.90;;;6.20;;
3726;SDS011;1879;45.876;12.300;2023-02-28T14:03:57;7.50;;;6.80;;
3726;SDS011;1879;45.876;12.300;2023-02-28T14:06:37;9.00;;;8.10;;
3726;SDS011;1879;45.876;12.300;2023-02-28T14:09:16;7.10;;;6.50;;
3726;SDS011;1879;45.876;12.300;2023-02-28T14:11:48;6.47;;;5.87;;
3726;SDS011;1879;45.876;12.300;2023-02-28T14:17:16;7.90;;;7.20;;
3726;SDS011;1879;45.876;12.300;2023-02-28T14:19:44;7.30;;;6.60;;
3726;SDS011;1879;45.876;12.300;2023-02-28T14:22:18;7.30;;;6.60;;
3726;SDS011;1879;45.876;12.300;2023-02-28T14:25:11;6.90;;;6.30;;
3726;SDS011;1879;45.876;12.300;2023-02-28T14:27:48;7.37;;;6.53;;
3726;SDS011;1879;45.876;12.300;2023-02-28T14:30:36;7.20;;;6.50;;
3726;SDS011;1879;45.876;12.300;2023-02-28T14:33:23;7.87;;;7.17;;
3726;SDS011;1879;45.876;12.300;2023-02-28T14:38:42;7.10;;;6.40;;
3726;SDS011;1879;45.876;12.300;2023-02-28T14:41:14;7.40;;;6.80;;
3726;SDS011;1879;45.876;12.300;2023-02-28T14:43:49;8.20;;;7.13;;
3726;SDS011;1879;45.876;12.300;2023-02-28T14:46:21;7.33;;;6.67;;
3726;SDS011;1879;45.876;12.300;2023-02-28T14:48:50;7.90;;;6.63;;
3726;SDS011;1879;45.876;12.300;2023-02-28T14:51:18;7.60;;;6.90;;
3726;SDS011;1879;45.876;12.300;2023-02-28T14:53:49;7.80;;;7.00;;
3726;SDS011;1879;45.876;12.300;2023-02-28T14:56:23;8.10;;;6.70;;
3726;SDS011;1879;45.876;12.300;2023-02-28T14:58:53;8.93;;;6.83;;
3726;SDS011;1879;45.876;12.300;2023-02-28T15:01:22;8.43;;;7.60;;
3726;SDS011;1879;45.876;12.300;2023-02-28T15:03:57;8.77;;;7.67;;
3726;SDS011;1879;45.876;12.300;2023-02-28T15:06:26;7.90;;;7.20;;
3726;SDS011;1879;45.876;12.300;2023-02-28T15:09:13;7.50;;;6.80;;
3726;SDS011;1879;45.876;12.300;2023-02-28T15:11:41;9.47;;;7.63;;
3726;SDS011;1879;45.876;12.300;2023-02-28T15:14:14;7.77;;;6.97;;
3726;SDS011;1879;45.876;12.300;2023-02-28T15:16:45;8.47;;;7.23;;
3726;SDS011;1879;45.876;12.300;2023-02-28T15:19:18;7.97;;;7.17;;
3726;SDS011;1879;45.876;12.300;2023-02-28T15:21:50;11.73;;;7.50;;
3726;SDS011;1879;45.876;12.300;2023-02-28T15:24:23;8.40;;;7.50;;
3726;SDS011;1879;45.876;12.300;2023-02-28T15:26:58;9.73;;;7.97;;
3726;SDS011;1879;45.876;12.300;2023-02-28T15:29:29;8.63;;;7.63;;
3726;SDS011;1879;45.876;12.300;2023-02-28T15:32:04;8.17;;;7.37;;
3726;SDS011;1879;45.876;12.300;2023-02-28T15:34:33;8.00;;;7.20;;
3726;SDS011;1879;45.876;12.300;2023-02-28T15:37:05;8.80;;;7.90;;
3726;SDS011;1879;45.876;12.300;2023-02-28T15:39:52;7.93;;;7.07;;
3726;SDS011;1879;45.876;12.300;2023-02-28T15:42:21;12.53;;;10.13;;
3726;SDS011;1879;45.876;12.300;2023-02-28T15:44:49;9.00;;;8.10;;
3726;SDS011;1879;45.876;12.300;2023-02-28T15:47:17;8.63;;;7.73;;
3726;SDS011;1879;45.876;12.300;2023-02-28T15:49:47;12.90;;;7.47;;
3726;SDS011;1879;45.876;12.300;2023-02-28T15:52:17;8.33;;;6.83;;
3726;SDS011;1879;45.876;12.300;2023-02-28T15:54:47;8.90;;;7.03;;